Historique des stations

Station météo de Saint-Pierre-de-Jards







Données météorologiques pour le 18/05/2022
Date
Heure
Températures Humidité Point de rosée Vitesse
du vent
Direction Rafales Windchill Pression Pluviométrie
Cumul
Date
Heure
Températures Humidité Point de rosée Vitesse
du vent
Direction Rafales Windchill Pression Pluviométrie
Cumul
18/05/2022 15:3230.9 °C45.0 %17.6 °C3 km/hE6 km/h30.91016 hPa0.0 mm
18/05/2022 15:1630.4 °C46.0 %17.5 °C4 km/hE6 km/h30.41017 hPa0.0 mm
18/05/2022 15:0630.2 °C47.0 %17.6 °C4 km/hE8 km/h30.31017 hPa0.0 mm
18/05/2022 14:5130.2 °C48.0 %18.0 °C2 km/hE6 km/h30.21017 hPa0.0 mm
18/05/2022 14:3629.8 °C49.0 %17.9 °C3 km/hE6 km/h29.81017 hPa0.0 mm
18/05/2022 14:2129.6 °C50.0 %18.1 °C2 km/hESE9 km/h29.61017 hPa0.0 mm
18/05/2022 14:0629.3 °C48.0 %17.2 °C3 km/hE6 km/h29.31018 hPa0.0 mm
18/05/2022 13:5129.1 °C49.0 %17.3 °C3 km/hE7 km/h29.11018 hPa0.0 mm
18/05/2022 13:3628.7 °C50.0 %17.2 °C3 km/hE6 km/h28.71018 hPa0.0 mm
18/05/2022 13:2128.1 °C53.0 %17.6 °C3 km/hENE5 km/h28.11018 hPa0.0 mm
18/05/2022 13:0627.9 °C55.0 %18.0 °C4 km/hENE5 km/h27.91018 hPa0.0 mm
18/05/2022 12:5127.8 °C56.0 %18.2 °C3 km/hE5 km/h27.81019 hPa0.0 mm
18/05/2022 12:3627.3 °C58.0 %18.3 °C2 km/hE5 km/h27.31019 hPa0.0 mm
18/05/2022 12:2027.3 °C57.0 %18.0 °C3 km/hE5 km/h27.31019 hPa0.0 mm
18/05/2022 12:0527.2 °C56.0 %17.7 °C2 km/hE4 km/h27.21019 hPa0.0 mm
18/05/2022 11:0525.4 °C64.0 %18.1 °C1 km/hE4 km/h25.41020 hPa0.0 mm
18/05/2022 11:0026.1 °C61.0 %18.0 °C1 km/hE4 km/h26.11019 hPa0.0 mm
18/05/2022 10:0523.8 °C67.0 %17.3 °C2 km/hE4 km/h23.81020 hPa0.0 mm
18/05/2022 10:0024.2 °C68.0 %17.9 °C2 km/hE4 km/h24.21020 hPa0.0 mm
18/05/2022 09:0922.5 °C71.0 %17.0 °C1 km/hNE2 km/h22.51020 hPa0.0 mm
18/05/2022 09:0422.1 °C72.0 %16.8 °C-NE2 km/h22.01020 hPa0.0 mm
18/05/2022 08:0918.2 °C83.0 %15.3 °C---18.21021 hPa0.0 mm
18/05/2022 08:0417.1 °C84.0 %14.4 °C-NO1 km/h17.11020 hPa0.0 mm
18/05/2022 07:0914.6 °C84.0 %11.9 °C---14.61020 hPa0.0 mm
18/05/2022 07:0415.4 °C84.0 %12.7 °C-NO1 km/h15.41020 hPa0.0 mm
18/05/2022 07:0314.2 °C84.0 %11.5 °C-ONO2 km/h14.21020 hPa0.0 mm
18/05/2022 06:0812.9 °C84.0 %10.3 °C---12.91020 hPa0.0 mm
18/05/2022 06:0313.1 °C84.0 %10.5 °C-ONO1 km/h13.11020 hPa0.0 mm
18/05/2022 05:0814.9 °C83.0 %12.0 °C-OSO1 km/h14.91020 hPa0.0 mm
18/05/2022 05:0315.7 °C83.0 %12.8 °C-OSO1 km/h15.71019 hPa0.0 mm
18/05/2022 04:0816.1 °C83.0 %13.2 °C1 km/hO2 km/h16.11019 hPa0.0 mm
18/05/2022 04:0717.3 °C80.0 %13.8 °C-O2 km/h17.31019 hPa0.0 mm
18/05/2022 04:0316.6 °C82.0 %13.5 °C-O1 km/h16.61019 hPa0.0 mm
18/05/2022 04:0217.9 °C80.0 %14.4 °C1 km/hONO2 km/h17.91019 hPa0.0 mm
18/05/2022 03:0719.0 °C79.0 %15.3 °C1 km/hONO3 km/h19.01019 hPa0.0 mm
18/05/2022 03:0219.1 °C79.0 %15.4 °C2 km/hONO4 km/h19.11019 hPa0.0 mm
18/05/2022 02:0719.3 °C79.0 %15.6 °C1 km/hO5 km/h19.31019 hPa0.0 mm
18/05/2022 02:0219.6 °C78.0 %15.7 °C2 km/hONO4 km/h19.61019 hPa0.0 mm
18/05/2022 01:4719.9 °C78.0 %15.9 °C2 km/hONO4 km/h19.91019 hPa0.0 mm
18/05/2022 01:3120.1 °C77.0 %15.9 °C1 km/hONO3 km/h20.11019 hPa0.0 mm
18/05/2022 01:1620.3 °C77.0 %16.1 °C2 km/hONO4 km/h20.31018 hPa0.0 mm
18/05/2022 01:0120.6 °C78.0 %16.6 °C2 km/hONO5 km/h20.61018 hPa0.0 mm
18/05/2022 00:4620.9 °C78.0 %16.9 °C2 km/hONO4 km/h20.91018 hPa0.0 mm
18/05/2022 00:3121.2 °C77.0 %17.0 °C3 km/hONO6 km/h21.21018 hPa0.0 mm
18/05/2022 00:1621.6 °C76.0 %17.2 °C3 km/hONO7 km/h21.61018 hPa0.0 mm
18/05/2022 00:0621.7 °C74.0 %16.9 °C3 km/hONO5 km/h21.71018 hPa0.0 mm


Minima :

Température : 12.9 °C
Humidité : 45.0 %
Point de rosée : 10.3 °C
Vent moyen : 1 km/h
Windchill : 12.9
Pression atm. : 1016 hPa
Maxima :

Température : 30.9 °C
Humidité : 84.0 %
Point de rosée : 18.3 °C
Vent moyen : 4 km/h
Windchill : 30.9
Pression atm. : 1021 hPa
Rafales max : 9 km/h
Cumul de pluie sur 24H : 0 mm

Saint-Pierre-de-Jards est une commune du département Indre (36).
La station météorologique du réseau de l'association la plus proche de Saint-Pierre-de-Jards est celle de Luçay-le-Libre



Icône Facebook Association Météo Centre Icône Twitter Association Météo Centre Icône Chaîne Youtube Association Météo Centre Icône contact Association Météo Centre Icône Insta Association Météo Centre